Time;durP1;ratioP1;P1;durP2;ratioP2;P2;SDS_P1;SDS_P2;PMS_P1;PMS_P2;Temp;Humidity;BMP_temperature;BMP_pressure;BME280_temperature;BME280_humidity;BME280_pressure;Samples;Min_cycle;Max_cycle;Signal;HPM_P1;HPM_P2
2022/03/26 00:01:37;;;;;;;40.33;21.35;;;1.80;99.90;;;;;;5017633;28;20525;-57
2022/03/26 00:04:03;;;;;;;45.70;21.13;;;1.70;99.90;;;;;;5013925;28;20034;-55
2022/03/26 00:06:29;;;;;;;39.22;22.35;;;1.70;99.90;;;;;;5013998;28;20022;-56
2022/03/26 00:08:55;;;;;;;38.42;21.33;;;1.70;99.90;;;;;;5018296;28;20025;-55
2022/03/26 00:11:21;;;;;;;40.63;22.95;;;1.70;99.90;;;;;;5019254;28;20080;-56
2022/03/26 00:13:47;;;;;;;50.67;22.50;;;1.70;99.90;;;;;;5016077;28;20040;-54
2022/03/26 00:16:13;;;;;;;36.83;20.58;;;1.70;99.90;;;;;;5017734;28;20038;-56
2022/03/26 00:18:38;;;;;;;40.97;21.02;;;1.70;99.90;;;;;;5019214;28;20104;-57
2022/03/26 00:21:05;;;;;;;35.95;20.05;;;1.60;99.90;;;;;;5019642;28;20029;-55
2022/03/26 00:23:31;;;;;;;40.67;20.90;;;1.60;99.90;;;;;;5014671;28;20034;-56
2022/03/26 00:25:58;;;;;;;35.63;19.88;;;1.60;99.90;;;;;;5022092;28;20166;-56
2022/03/26 00:28:24;;;;;;;35.17;19.85;;;1.50;99.90;;;;;;5021673;28;20029;-56
2022/03/26 00:30:50;;;;;;;38.17;19.42;;;1.50;99.90;;;;;;5020278;28;20025;-57
2022/03/26 00:33:16;;;;;;;41.92;18.95;;;1.40;99.90;;;;;;5019463;28;20040;-55
2022/03/26 00:35:42;;;;;;;42.42;23.05;;;1.40;99.90;;;;;;5020479;28;20374;-54
2022/03/26 00:38:08;;;;;;;44.60;23.20;;;1.40;99.90;;;;;;5025469;28;20414;-54
2022/03/26 00:40:34;;;;;;;49.00;22.17;;;1.30;99.90;;;;;;5022558;28;20107;-55
2022/03/26 00:43:00;;;;;;;46.38;22.88;;;1.30;99.90;;;;;;5023514;28;20083;-56
2022/03/26 00:45:29;;;;;;;43.28;22.00;;;1.20;99.90;;;;;;5019997;28;20105;-57
2022/03/26 00:47:59;;;;;;;53.53;24.40;;;1.10;99.90;;;;;;5022398;28;20018;-55
2022/03/26 00:50:25;;;;;;;77.28;33.53;;;1.10;99.90;;;;;;5019862;28;20064;-57
2022/03/26 00:52:51;;;;;;;120.45;42.08;;;1.00;99.90;;;;;;5019254;28;20053;-57
2022/03/26 00:55:17;;;;;;;54.00;24.65;;;1.00;99.90;;;;;;5020363;28;20503;-57
2022/03/26 00:57:43;;;;;;;48.78;24.02;;;1.00;99.90;;;;;;5018577;28;20026;-55
2022/03/26 01:00:10;;;;;;;102.88;37.40;;;0.90;99.90;;;;;;5022579;28;20511;-56
2022/03/26 01:02:36;;;;;;;75.07;32.25;;;0.90;99.90;;;;;;5023956;28;20029;-56
2022/03/26 01:05:04;;;;;;;77.72;29.42;;;0.90;99.90;;;;;;5022575;28;20018;-56
2022/03/26 01:07:30;;;;;;;50.30;22.90;;;0.90;99.90;;;;;;5018440;28;20720;-57
2022/03/26 01:09:56;;;;;;;39.28;21.92;;;0.90;99.90;;;;;;5016319;28;20668;-56
2022/03/26 01:12:23;;;;;;;44.58;23.02;;;0.90;99.90;;;;;;5020753;28;20101;-56
2022/03/26 01:14:50;;;;;;;39.78;21.15;;;0.90;99.90;;;;;;5023160;28;20017;-56
2022/03/26 01:17:16;;;;;;;45.20;22.58;;;0.80;99.90;;;;;;5020027;28;20077;-56
2022/03/26 01:19:41;;;;;;;38.50;21.55;;;0.80;99.90;;;;;;5018255;28;20088;-56
2022/03/26 01:22:07;;;;;;;52.22;22.80;;;0.80;99.90;;;;;;5018287;28;20030;-56
2022/03/26 01:24:33;;;;;;;41.40;21.92;;;0.80;99.90;;;;;;5019672;28;20043;-55
2022/03/26 01:26:59;;;;;;;45.33;22.77;;;0.70;99.90;;;;;;5018169;28;20097;-57
2022/03/26 01:29:25;;;;;;;44.10;22.80;;;0.70;99.90;;;;;;5019253;28;20030;-56
2022/03/26 01:31:50;;;;;;;49.58;25.02;;;0.60;99.90;;;;;;5020522;28;20129;-55
2022/03/26 01:34:17;;;;;;;41.17;22.17;;;0.50;99.90;;;;;;5018934;28;20033;-55
2022/03/26 01:36:43;;;;;;;48.33;22.77;;;0.50;99.90;;;;;;5017012;28;20104;-57
2022/03/26 01:39:09;;;;;;;42.03;20.88;;;0.40;99.90;;;;;;5024965;28;20036;-56
2022/03/26 01:41:35;;;;;;;41.75;22.05;;;0.40;99.90;;;;;;5017210;28;20026;-56
2022/03/26 01:44:01;;;;;;;40.38;21.33;;;0.50;99.90;;;;;;5021954;28;20021;-55
2022/03/26 01:46:26;;;;;;;39.60;22.77;;;0.40;99.90;;;;;;5017588;28;20022;-56
2022/03/26 01:48:52;;;;;;;46.72;22.45;;;0.30;99.90;;;;;;5014122;28;20026;-55
2022/03/26 01:51:19;;;;;;;50.50;25.33;;;0.10;99.90;;;;;;5024672;28;20021;-56
2022/03/26 01:53:54;;;;;;;45.08;23.70;;;0.00;99.90;;;;;;5021871;28;20056;-56
2022/03/26 01:56:21;;;;;;;48.70;24.77;;;-0.10;99.90;;;;;;5020632;28;20087;-56
2022/03/26 01:58:47;;;;;;;55.20;23.92;;;-0.20;99.90;;;;;;5019883;28;20108;-56
2022/03/26 02:01:13;;;;;;;53.78;24.48;;;-0.20;99.90;;;;;;5018374;28;20071;-56
2022/03/26 02:03:39;;;;;;;60.65;25.65;;;-0.20;99.90;;;;;;5022511;28;20018;-55
2022/03/26 02:06:05;;;;;;;52.45;25.45;;;-0.20;99.90;;;;;;5017467;28;20032;-56
2022/03/26 02:08:31;;;;;;;55.88;24.45;;;-0.20;99.90;;;;;;5018241;28;20385;-56
2022/03/26 02:10:57;;;;;;;61.72;26.48;;;-0.20;99.90;;;;;;5021184;28;20033;-56
2022/03/26 02:13:23;;;;;;;61.15;27.27;;;-0.10;99.90;;;;;;5020447;28;20128;-56
2022/03/26 02:15:48;;;;;;;61.67;27.17;;;-0.10;99.90;;;;;;5021228;28;20029;-54
2022/03/26 02:18:14;;;;;;;66.55;28.10;;;0.00;99.90;;;;;;5020911;28;20025;-56
2022/03/26 02:20:40;;;;;;;61.13;27.88;;;0.10;99.90;;;;;;5019259;28;20049;-56
2022/03/26 02:23:06;;;;;;;58.83;25.42;;;0.20;99.90;;;;;;5019605;28;20103;-56
2022/03/26 02:25:32;;;;;;;54.25;25.92;;;0.30;99.90;;;;;;5016265;28;20049;-55
2022/03/26 02:27:57;;;;;;;60.63;26.38;;;0.30;99.90;;;;;;5017134;28;20108;-56
2022/03/26 02:30:23;;;;;;;50.83;25.00;;;0.30;99.90;;;;;;5016571;28;20105;-55
2022/03/26 02:32:49;;;;;;;56.47;24.70;;;0.20;99.90;;;;;;5020506;28;20021;-57
2022/03/26 02:35:14;;;;;;;44.50;23.77;;;0.10;99.90;;;;;;5017892;28;20495;-56
2022/03/26 02:37:40;;;;;;;58.65;25.05;;;0.00;99.90;;;;;;5017789;28;20030;-56
2022/03/26 02:40:07;;;;;;;58.42;25.13;;;0.00;99.90;;;;;;5014369;28;20448;-56
2022/03/26 02:42:37;;;;;;;54.35;25.08;;;-0.10;99.90;;;;;;5017030;28;20030;-56
2022/03/26 02:45:03;;;;;;;52.20;24.92;;;-0.20;99.90;;;;;;5015330;28;20042;-56
2022/03/26 02:47:29;;;;;;;52.38;23.10;;;-0.20;99.90;;;;;;5017636;28;20084;-56
2022/03/26 02:49:55;;;;;;;59.67;24.80;;;-0.30;99.90;;;;;;5016793;28;20441;-56
2022/03/26 02:52:22;;;;;;;48.42;23.20;;;-0.30;99.90;;;;;;5018828;28;20053;-55
2022/03/26 02:54:48;;;;;;;57.72;25.95;;;-0.40;99.90;;;;;;5020546;28;20037;-55
2022/03/26 02:57:13;;;;;;;55.35;26.38;;;-0.50;99.90;;;;;;5016913;28;20036;-56
2022/03/26 02:59:39;;;;;;;99.60;40.10;;;-0.50;99.90;;;;;;5015953;28;20030;-56
2022/03/26 03:02:09;;;;;;;79.07;31.38;;;-0.50;99.90;;;;;;5017105;28;20463;-55
2022/03/26 03:04:35;;;;;;;53.30;24.02;;;-0.50;99.90;;;;;;5015052;28;20040;-56
2022/03/26 03:07:01;;;;;;;49.55;23.25;;;-0.50;99.90;;;;;;5018826;28;20026;-56
2022/03/26 03:09:27;;;;;;;58.20;27.25;;;-0.60;99.90;;;;;;5018020;28;20026;-56
2022/03/26 03:11:53;;;;;;;51.13;23.17;;;-0.60;99.90;;;;;;5017222;28;20029;-56
2022/03/26 03:14:18;;;;;;;47.67;23.42;;;-0.60;99.90;;;;;;5014803;28;20035;-56
2022/03/26 03:16:45;;;;;;;52.08;25.75;;;-0.70;99.90;;;;;;5017666;28;20493;-56
2022/03/26 03:19:11;;;;;;;55.75;24.42;;;-0.70;99.90;;;;;;5016687;28;20033;-55
2022/03/26 03:21:37;;;;;;;60.45;26.25;;;-0.70;99.90;;;;;;5017744;28;20030;-55
2022/03/26 03:24:02;;;;;;;45.67;22.98;;;-0.70;99.90;;;;;;5015986;28;20025;-56
2022/03/26 03:26:28;;;;;;;50.92;24.23;;;-0.70;99.90;;;;;;5012869;28;20375;-56
2022/03/26 03:28:54;;;;;;;46.42;21.75;;;-0.70;99.90;;;;;;5018767;28;20042;-57
2022/03/26 03:31:19;;;;;;;60.03;28.75;;;-0.70;99.90;;;;;;5018381;28;20034;-55
2022/03/26 03:33:46;;;;;;;57.53;25.85;;;-0.70;99.90;;;;;;5019292;28;20021;-56
2022/03/26 03:36:12;;;;;;;50.90;24.30;;;-0.70;99.90;;;;;;5021687;28;20044;-57
2022/03/26 03:38:37;;;;;;;53.22;23.95;;;-0.80;99.90;;;;;;5020663;28;20505;-55
2022/03/26 03:41:03;;;;;;;56.03;24.38;;;-0.80;99.90;;;;;;5018321;28;20034;-55
2022/03/26 03:43:29;;;;;;;53.67;24.65;;;-0.90;99.90;;;;;;5019655;28;20037;-55
2022/03/26 03:45:54;;;;;;;48.08;24.02;;;-0.90;99.90;;;;;;5015587;28;20034;-57
2022/03/26 03:48:20;;;;;;;53.72;25.02;;;-1.00;99.90;;;;;;5018314;28;20045;-58
2022/03/26 03:50:47;;;;;;;50.35;25.88;;;-1.10;99.90;;;;;;5017160;28;20025;-56
2022/03/26 03:53:13;;;;;;;52.80;22.65;;;-1.10;99.90;;;;;;5019642;28;20038;-55
2022/03/26 03:55:39;;;;;;;47.80;23.60;;;-1.10;99.90;;;;;;5017008;28;20716;-55
2022/03/26 03:58:04;;;;;;;54.17;23.55;;;-1.20;99.90;;;;;;5016420;28;20040;-56
2022/03/26 04:00:30;;;;;;;48.65;22.50;;;-1.20;99.90;;;;;;5018686;28;20032;-55
2022/03/26 04:02:56;;;;;;;56.97;25.08;;;-1.30;99.90;;;;;;5017402;28;20079;-57
2022/03/26 04:05:22;;;;;;;57.53;25.17;;;-1.30;99.90;;;;;;5016999;28;20414;-56
2022/03/26 04:07:47;;;;;;;60.85;27.63;;;-1.30;99.90;;;;;;5013819;28;20026;-56
2022/03/26 04:10:13;;;;;;;56.90;27.05;;;-1.30;99.90;;;;;;5015192;28;20036;-57
2022/03/26 04:12:41;;;;;;;52.63;25.08;;;-1.30;99.90;;;;;;5016512;28;20466;-55
2022/03/26 04:15:08;;;;;;;56.95;26.17;;;-1.20;99.90;;;;;;5022310;28;20025;-56
2022/03/26 04:17:34;;;;;;;55.58;24.13;;;-1.30;99.90;;;;;;5014203;28;20034;-56
2022/03/26 04:20:01;;;;;;;58.85;25.45;;;-1.30;99.90;;;;;;5016327;28;20034;-56
2022/03/26 04:22:27;;;;;;;69.20;26.23;;;-1.40;99.90;;;;;;5017800;28;20032;-56
2022/03/26 04:24:53;;;;;;;70.82;27.13;;;-1.40;99.90;;;;;;5018396;28;20113;-56
2022/03/26 04:27:18;;;;;;;73.22;28.08;;;-1.40;99.90;;;;;;5017537;28;20029;-54
2022/03/26 04:29:44;;;;;;;66.97;28.40;;;-1.40;99.90;;;;;;5011841;28;20073;-56
2022/03/26 04:32:12;;;;;;;70.13;27.63;;;-1.40;99.90;;;;;;5013570;28;20045;-54
2022/03/26 04:34:38;;;;;;;67.05;28.30;;;-1.40;99.90;;;;;;5018035;28;20022;-56
2022/03/26 04:37:05;;;;;;;68.90;28.17;;;-1.30;99.90;;;;;;5016383;28;20129;-57
2022/03/26 04:39:31;;;;;;;64.85;27.08;;;-1.30;99.90;;;;;;5017540;28;20040;-56
2022/03/26 04:41:56;;;;;;;64.38;27.40;;;-1.20;99.90;;;;;;5016360;28;20473;-57
2022/03/26 04:44:22;;;;;;;68.43;27.92;;;-1.20;99.90;;;;;;5021232;28;20042;-57
2022/03/26 04:46:48;;;;;;;68.13;26.08;;;-1.10;99.90;;;;;;5015228;28;20841;-57
2022/03/26 04:49:13;;;;;;;72.60;26.55;;;-1.10;99.90;;;;;;5018829;28;20612;-56
2022/03/26 04:51:39;;;;;;;44.75;22.52;;;-1.10;99.90;;;;;;5015634;28;20029;-54
2022/03/26 04:54:05;;;;;;;56.95;25.90;;;-1.10;99.90;;;;;;5012743;28;20095;-56
2022/03/26 04:56:30;;;;;;;53.85;23.63;;;-1.10;99.90;;;;;;5015405;28;20206;-57
2022/03/26 04:58:57;;;;;;;57.67;25.13;;;-1.20;99.90;;;;;;5017532;28;20480;-56
2022/03/26 05:01:23;;;;;;;44.50;22.95;;;-1.20;99.90;;;;;;5015864;28;20034;-56
2022/03/26 05:03:49;;;;;;;57.28;23.48;;;-1.30;99.90;;;;;;5017700;28;20022;-56
2022/03/26 05:06:15;;;;;;;54.50;23.90;;;-1.30;99.90;;;;;;5016368;28;20112;-57
2022/03/26 05:08:41;;;;;;;51.15;23.25;;;-1.40;99.90;;;;;;5017266;28;20029;-56
2022/03/26 05:11:07;;;;;;;56.03;25.85;;;-1.40;99.90;;;;;;5018149;28;20187;-56
2022/03/26 05:13:33;;;;;;;53.15;22.92;;;-1.40;99.90;;;;;;5022385;28;20046;-56
2022/03/26 05:15:58;;;;;;;56.95;23.40;;;-1.40;99.90;;;;;;5017125;28;20374;-55
2022/03/26 05:18:24;;;;;;;55.92;22.20;;;-1.40;99.90;;;;;;5020689;28;20160;-56
2022/03/26 05:20:50;;;;;;;49.88;24.40;;;-1.40;99.90;;;;;;5019874;28;20045;-56
2022/03/26 05:23:16;;;;;;;50.47;23.23;;;-1.40;99.90;;;;;;5023659;28;20033;-56
2022/03/26 05:25:42;;;;;;;48.30;21.35;;;-1.40;99.90;;;;;;5017715;28;20038;-56
2022/03/26 05:28:08;;;;;;;52.33;22.65;;;-1.30;99.90;;;;;;5020225;28;20439;-56
2022/03/26 05:30:34;;;;;;;53.22;23.60;;;-1.30;99.90;;;;;;5019180;28;20091;-56
2022/03/26 05:33:00;;;;;;;50.33;23.30;;;-1.20;99.90;;;;;;5021545;28;20018;-56
2022/03/26 05:35:26;;;;;;;52.67;24.48;;;-1.10;99.90;;;;;;5018695;28;20033;-56
2022/03/26 05:37:52;;;;;;;51.25;23.20;;;-1.00;99.90;;;;;;5019707;28;20474;-55
2022/03/26 05:40:19;;;;;;;45.90;23.27;;;-0.90;99.90;;;;;;5019917;28;20057;-56
2022/03/26 05:42:46;;;;;;;37.97;20.50;;;-0.80;99.90;;;;;;5020405;28;20030;-55
2022/03/26 05:45:13;;;;;;;46.55;21.52;;;-0.70;99.90;;;;;;5019269;28;20116;-57
2022/03/26 05:47:39;;;;;;;47.10;20.70;;;-0.60;99.90;;;;;;5015964;28;20335;-56
2022/03/26 05:50:11;;;;;;;53.58;23.15;;;-0.50;99.90;;;;;;5014943;28;20046;-56
2022/03/26 05:52:36;;;;;;;44.30;20.00;;;-0.40;99.90;;;;;;5024602;28;20080;-56
2022/03/26 05:55:03;;;;;;;43.65;19.77;;;-0.30;99.90;;;;;;5018202;28;20030;-57
2022/03/26 05:57:28;;;;;;;42.60;19.85;;;-0.10;99.90;;;;;;5019317;28;20036;-56
2022/03/26 05:59:54;;;;;;;32.58;18.02;;;0.10;99.90;;;;;;5022619;28;20034;-57
2022/03/26 06:02:21;;;;;;;40.83;19.73;;;0.20;99.90;;;;;;5022303;28;20115;-55
2022/03/26 06:04:47;;;;;;;43.30;19.13;;;0.40;99.90;;;;;;5019772;28;20028;-56
2022/03/26 06:07:13;;;;;;;41.17;19.10;;;0.50;99.90;;;;;;5018749;28;20026;-57
2022/03/26 06:09:39;;;;;;;39.70;19.45;;;0.70;99.90;;;;;;5023355;28;20505;-57
2022/03/26 06:12:06;;;;;;;35.10;18.08;;;1.40;99.90;;;;;;5021017;28;20478;-57
2022/03/26 06:14:32;;;;;;;31.60;17.80;;;2.40;99.90;;;;;;5019340;28;20029;-57
2022/03/26 06:16:58;;;;;;;32.45;17.02;;;3.40;99.90;;;;;;5021856;28;20389;-56
2022/03/26 06:19:26;;;;;;;32.33;17.02;;;4.50;99.90;;;;;;5019442;28;20041;-55
2022/03/26 06:21:52;;;;;;;33.13;17.42;;;5.70;99.90;;;;;;5018307;28;20022;-57
2022/03/26 06:24:17;;;;;;;26.77;15.77;;;6.60;99.90;;;;;;5024176;28;20036;-57
2022/03/26 06:26:44;;;;;;;32.83;15.77;;;7.10;92.00;;;;;;5012229;28;20033;-58
2022/03/26 06:29:12;;;;;;;22.80;16.35;;;7.20;91.20;;;;;;5023622;28;20389;-58
2022/03/26 06:31:38;;;;;;;27.83;16.70;;;7.60;90.20;;;;;;5018006;28;20407;-58
2022/03/26 06:34:03;;;;;;;33.25;17.05;;;8.40;84.90;;;;;;5021533;28;20030;-57
2022/03/26 06:36:29;;;;;;;21.90;14.85;;;9.10;81.90;;;;;;5018960;28;20445;-56
2022/03/26 06:38:55;;;;;;;25.95;15.07;;;9.90;80.10;;;;;;5018357;28;20710;-57
2022/03/26 06:41:20;;;;;;;25.60;16.17;;;10.60;74.80;;;;;;5015003;28;20033;-58
2022/03/26 06:43:46;;;;;;;23.88;15.10;;;11.30;70.30;;;;;;5016279;28;20022;-56
2022/03/26 06:46:12;;;;;;;28.00;17.02;;;12.00;69.90;;;;;;5017362;28;20022;-58
2022/03/26 06:48:38;;;;;;;26.92;16.33;;;11.70;66.50;;;;;;5018886;28;20025;-57
2022/03/26 06:51:08;;;;;;;24.80;17.15;;;12.60;66.40;;;;;;5017298;28;20028;-58
2022/03/26 06:53:35;;;;;;;30.02;17.60;;;13.60;62.60;;;;;;5012962;28;20053;-58
2022/03/26 06:56:02;;;;;;;27.48;18.77;;;14.20;60.00;;;;;;5020420;28;20029;-56
2022/03/26 06:58:27;;;;;;;27.58;18.73;;;14.50;59.70;;;;;;5019319;28;20033;-57
2022/03/26 07:00:53;;;;;;;23.33;16.98;;;15.20;58.00;;;;;;5017179;28;20485;-57
2022/03/26 07:03:19;;;;;;;19.63;17.33;;;15.90;56.40;;;;;;5020067;28;20021;-57
2022/03/26 07:05:44;;;;;;;23.65;19.10;;;16.70;54.90;;;;;;5015276;28;20030;-58
2022/03/26 07:08:10;;;;;;;19.90;17.23;;;17.10;53.00;;;;;;5018294;28;20037;-57
2022/03/26 07:10:41;;;;;;;26.60;18.75;;;17.20;52.40;;;;;;5017240;28;20034;-58
2022/03/26 07:13:07;;;;;;;30.08;19.83;;;17.00;53.00;;;;;;5016883;28;20061;-57
2022/03/26 07:15:33;;;;;;;28.83;18.58;;;17.00;52.60;;;;;;5020981;28;20051;-57
2022/03/26 07:17:59;;;;;;;28.20;19.23;;;16.90;53.50;;;;;;5019439;28;20021;-57
2022/03/26 07:20:25;;;;;;;22.27;17.73;;;16.70;53.30;;;;;;5018592;28;20022;-57
2022/03/26 07:22:50;;;;;;;29.40;19.85;;;16.80;53.30;;;;;;5017639;28;20029;-57
2022/03/26 07:25:16;;;;;;;25.90;19.25;;;16.70;52.30;;;;;;5016536;28;20087;-56
2022/03/26 07:27:42;;;;;;;24.88;19.33;;;16.90;53.40;;;;;;5018954;28;20108;-57
2022/03/26 07:30:09;;;;;;;32.80;20.88;;;17.30;53.00;;;;;;5016715;28;20446;-57
2022/03/26 07:32:35;;;;;;;24.13;19.42;;;17.60;51.10;;;;;;5013565;28;20148;-57
2022/03/26 07:35:01;;;;;;;21.13;18.60;;;18.40;50.10;;;;;;5024656;28;20071;-57
2022/03/26 07:37:27;;;;;;;25.35;19.05;;;19.30;48.30;;;;;;5013804;28;20033;-58
2022/03/26 07:39:53;;;;;;;22.00;18.88;;;19.70;47.20;;;;;;5020406;28;20029;-57
2022/03/26 07:42:18;;;;;;;23.27;18.48;;;19.40;47.60;;;;;;5019977;28;20026;-56
2022/03/26 07:44:44;;;;;;;23.90;19.35;;;19.70;47.20;;;;;;5018454;28;20113;-57
2022/03/26 07:47:10;;;;;;;21.67;18.48;;;20.10;46.70;;;;;;5017285;28;20029;-56
2022/03/26 07:49:35;;;;;;;28.38;18.70;;;19.90;47.00;;;;;;5015426;28;20397;-58
2022/03/26 07:52:01;;;;;;;26.48;20.38;;;19.60;48.20;;;;;;5016917;28;20489;-57
2022/03/26 07:54:27;;;;;;;22.63;18.55;;;19.90;46.70;;;;;;5016257;28;20042;-56
2022/03/26 07:56:53;;;;;;;25.75;20.15;;;19.50;48.40;;;;;;5019531;28;20022;-57
2022/03/26 07:59:18;;;;;;;30.90;21.38;;;19.50;48.00;;;;;;5020022;28;20588;-56
2022/03/26 08:01:44;;;;;;;29.17;20.13;;;19.50;47.60;;;;;;5018609;28;20033;-58
2022/03/26 08:04:10;;;;;;;24.38;19.48;;;19.60;48.20;;;;;;5014785;28;20034;-57
2022/03/26 08:06:36;;;;;;;27.77;20.23;;;20.30;48.50;;;;;;5018495;28;20029;-57
2022/03/26 08:09:02;;;;;;;29.52;19.67;;;20.90;47.70;;;;;;5014698;28;20022;-58
2022/03/26 08:11:28;;;;;;;25.90;20.65;;;21.60;45.60;;;;;;5017426;28;20044;-56
2022/03/26 08:13:53;;;;;;;23.38;19.55;;;22.10;44.50;;;;;;5018033;28;20104;-57
2022/03/26 08:16:19;;;;;;;26.20;20.80;;;22.20;43.90;;;;;;5015596;28;20053;-57
2022/03/26 08:18:45;;;;;;;27.48;20.98;;;22.40;42.90;;;;;;5014862;28;20049;-57
2022/03/26 08:21:11;;;;;;;28.35;21.55;;;22.00;43.60;;;;;;5022196;28;20030;-57
2022/03/26 08:23:37;;;;;;;24.55;20.33;;;22.10;43.60;;;;;;5019733;28;20072;-57
2022/03/26 08:26:23;;;;;;;28.25;22.67;;;22.90;43.30;;;;;;5015324;28;20037;-58
2022/03/26 08:28:55;;;;;;;28.10;22.00;;;23.20;41.10;;;;;;5014489;28;20029;-57
2022/03/26 08:31:24;;;;;;;21.92;19.52;;;23.70;41.10;;;;;;5016860;28;20022;-57
2022/03/26 08:33:50;;;;;;;25.20;20.00;;;23.70;42.20;;;;;;5015089;28;20034;-57
2022/03/26 08:36:17;;;;;;;26.33;20.58;;;24.50;41.10;;;;;;5014010;28;20025;-57
2022/03/26 08:38:45;;;;;;;25.60;20.77;;;24.50;40.70;;;;;;5018834;28;20543;-58
2022/03/26 08:41:15;;;;;;;29.67;21.65;;;25.00;40.50;;;;;;5018456;28;20033;-58
2022/03/26 08:43:40;;;;;;;24.52;21.02;;;25.40;37.80;;;;;;5018129;28;20036;-58
2022/03/26 08:46:06;;;;;;;27.08;21.48;;;26.10;37.40;;;;;;5016927;28;20026;-58
2022/03/26 08:48:32;;;;;;;26.48;20.85;;;26.10;37.60;;;;;;5017486;28;20109;-58
2022/03/26 08:50:58;;;;;;;28.65;22.05;;;25.80;37.50;;;;;;5022134;28;20047;-57
2022/03/26 08:53:24;;;;;;;29.00;22.15;;;26.40;37.00;;;;;;5021191;28;20037;-58
2022/03/26 08:55:51;;;;;;;26.38;22.42;;;26.30;37.40;;;;;;5022602;28;20080;-58
2022/03/26 08:58:17;;;;;;;26.58;21.90;;;26.20;37.50;;;;;;5019575;28;20041;-57
2022/03/26 09:00:47;;;;;;;33.42;22.13;;;26.90;36.60;;;;;;5016916;28;20029;-58
2022/03/26 09:03:17;;;;;;;23.27;20.85;;;27.30;36.00;;;;;;5019961;28;20021;-58
2022/03/26 09:05:43;;;;;;;30.23;22.17;;;27.70;35.90;;;;;;5020965;28;20025;-58
2022/03/26 09:08:09;;;;;;;23.52;21.13;;;27.90;35.50;;;;;;5020102;28;20022;-57
2022/03/26 09:10:35;;;;;;;36.67;22.45;;;28.60;35.60;;;;;;5020764;28;20591;-57
2022/03/26 09:13:01;;;;;;;25.27;21.17;;;28.70;34.60;;;;;;5036665;28;20402;-57
2022/03/26 09:15:27;;;;;;;25.17;22.45;;;28.30;35.60;;;;;;5019281;28;20116;-57
2022/03/26 09:17:52;;;;;;;27.55;22.02;;;28.40;34.30;;;;;;5021660;28;20105;-58
2022/03/26 09:20:18;;;;;;;24.95;22.33;;;28.30;34.50;;;;;;5019481;28;20030;-57
2022/03/26 09:22:44;;;;;;;35.05;23.42;;;28.40;34.20;;;;;;5020118;28;20066;-57
2022/03/26 09:25:09;;;;;;;29.77;22.48;;;28.90;33.90;;;;;;5019369;28;20400;-57
2022/03/26 09:27:35;;;;;;;26.35;21.67;;;28.90;34.30;;;;;;5016838;28;20025;-57
2022/03/26 09:30:01;;;;;;;25.95;23.08;;;29.10;34.60;;;;;;5019396;28;20025;-58
2022/03/26 09:32:27;;;;;;;28.63;22.50;;;29.10;33.70;;;;;;5022419;28;20033;-57
2022/03/26 09:34:52;;;;;;;29.90;22.48;;;29.30;34.40;;;;;;5018184;28;20025;-58
2022/03/26 09:37:18;;;;;;;24.48;21.98;;;29.20;34.40;;;;;;5022147;28;20034;-58
2022/03/26 09:39:44;;;;;;;25.83;21.60;;;29.30;34.90;;;;;;5023538;28;20045;-58
2022/03/26 09:42:10;;;;;;;23.60;21.17;;;29.40;34.30;;;;;;5015766;28;20567;-57
2022/03/26 09:44:38;;;;;;;32.17;21.92;;;29.50;34.30;;;;;;5021250;28;20105;-58
2022/03/26 09:47:04;;;;;;;30.73;21.63;;;29.90;35.00;;;;;;5022234;28;20120;-58
2022/03/26 09:49:30;;;;;;;26.63;21.63;;;30.20;33.30;;;;;;5020209;28;20044;-58
2022/03/26 09:51:57;;;;;;;27.63;21.58;;;30.20;32.00;;;;;;5016529;28;20033;-59
2022/03/26 09:54:22;;;;;;;22.77;20.10;;;30.00;33.40;;;;;;5020233;28;20449;-58
2022/03/26 09:56:48;;;;;;;23.45;21.00;;;30.00;32.70;;;;;;5020647;28;20052;-59
2022/03/26 09:59:14;;;;;;;25.13;20.33;;;29.80;32.30;;;;;;5019917;28;20030;-57
2022/03/26 10:01:42;;;;;;;25.58;21.80;;;29.80;32.50;;;;;;5022064;28;20034;-58
2022/03/26 10:04:12;;;;;;;27.73;21.05;;;29.30;34.00;;;;;;5021173;28;20493;-57
2022/03/26 10:06:47;;;;;;;23.27;20.40;;;29.30;33.50;;;;;;5020558;28;20022;-57
2022/03/26 10:09:23;;;;;;;30.08;20.05;;;28.40;33.60;;;;;;5017643;28;20226;-57
2022/03/26 10:11:49;;;;;;;29.80;20.48;;;27.30;34.30;;;;;;5017942;28;20116;-58
2022/03/26 10:14:15;;;;;;;36.05;21.10;;;27.20;36.30;;;;;;5020464;28;20680;-57
2022/03/26 10:16:50;;;;;;;30.35;19.77;;;27.10;37.70;;;;;;5019553;28;20026;-57
2022/03/26 10:19:22;;;;;;;24.20;18.60;;;26.90;35.60;;;;;;5022747;28;20520;-58
2022/03/26 10:21:49;;;;;;;25.55;19.38;;;27.40;35.90;;;;;;5022650;28;20436;-58
2022/03/26 10:24:14;;;;;;;19.77;17.85;;;27.40;36.30;;;;;;5021655;28;20405;-57
2022/03/26 10:26:41;;;;;;;21.98;18.00;;;27.80;37.60;;;;;;5017170;28;20037;-57
2022/03/26 10:29:09;;;;;;;20.95;17.65;;;29.00;35.90;;;;;;5021926;28;20033;-57
2022/03/26 10:34:20;;;;;;;23.48;18.20;;;31.00;33.40;;;;;;5020507;28;20037;-57
2022/03/26 10:36:54;;;;;;;28.25;18.08;;;31.10;33.40;;;;;;5016588;28;20025;-58
2022/03/26 10:39:22;;;;;;;27.45;18.70;;;30.70;33.60;;;;;;5020506;28;20072;-58
2022/03/26 10:41:49;;;;;;;26.80;18.63;;;30.00;33.70;;;;;;5018259;28;20045;-57
2022/03/26 10:44:23;;;;;;;21.70;18.73;;;30.10;34.30;;;;;;5018280;28;20116;-58
2022/03/26 10:47:01;;;;;;;23.20;19.17;;;30.40;33.80;;;;;;5019875;28;20037;-58
2022/03/26 10:49:38;;;;;;;21.25;18.63;;;29.90;32.30;;;;;;5013873;28;20049;-58
2022/03/26 10:52:15;;;;;;;20.60;18.50;;;29.50;34.50;;;;;;5015410;28;20030;-58
2022/03/26 10:54:42;;;;;;;22.45;17.55;;;28.50;33.90;;;;;;5015999;28;20525;-58
2022/03/26 10:57:08;;;;;;;19.75;16.80;;;28.60;36.00;;;;;;5015008;28;20022;-58
2022/03/26 10:59:34;;;;;;;19.90;17.85;;;29.00;35.90;;;;;;5015862;28;20033;-59
2022/03/26 11:02:01;;;;;;;19.42;17.42;;;29.60;34.10;;;;;;5017035;28;20030;-59
2022/03/26 11:04:28;;;;;;;19.25;16.98;;;29.80;34.40;;;;;;5025970;28;20163;-57
2022/03/26 11:06:56;;;;;;;20.67;17.42;;;29.40;34.10;;;;;;5014883;28;20938;-58
2022/03/26 11:09:22;;;;;;;19.35;16.00;;;29.60;34.80;;;;;;5019208;28;20026;-59
2022/03/26 11:11:51;;;;;;;19.65;17.15;;;29.90;34.60;;;;;;5019336;28;20026;-58
2022/03/26 11:14:18;;;;;;;30.45;18.90;;;29.60;34.10;;;;;;5018497;28;20061;-57
2022/03/26 11:16:57;;;;;;;18.67;16.67;;;29.20;33.90;;;;;;5017187;28;20099;-59
2022/03/26 11:19:59;;;;;;;19.13;16.75;;;28.70;34.60;;;;;;5019360;28;20401;-57
2022/03/26 11:22:30;;;;;;;26.70;17.70;;;28.50;35.10;;;;;;5019714;28;20034;-58
2022/03/26 11:25:34;;;;;;;22.65;17.20;;;28.70;34.30;;;;;;5020457;28;20029;-57
2022/03/26 11:28:35;;;;;;;30.17;18.88;;;28.50;35.50;;;;;;5001777;28;20053;-57
2022/03/26 11:31:34;;;;;;;24.77;16.67;;;28.40;34.10;;;;;;5012903;28;20026;-57
2022/03/26 11:34:05;;;;;;;19.83;16.23;;;28.10;35.80;;;;;;5016016;28;20022;-57
2022/03/26 11:36:32;;;;;;;22.08;16.02;;;28.00;36.40;;;;;;5019175;28;20050;-57
2022/03/26 11:39:09;;;;;;;28.60;18.10;;;28.40;35.60;;;;;;5018042;28;20504;-59
2022/03/26 11:41:35;;;;;;;21.20;16.15;;;28.50;34.50;;;;;;5013329;28;20022;-57
2022/03/26 11:44:03;;;;;;;23.95;15.40;;;28.40;35.00;;;;;;5017092;28;20041;-57
2022/03/26 11:52:30;;;;;;;24.40;16.92;;;28.50;35.60;;;;;;5012650;28;20574;-58
2022/03/26 11:55:24;;;;;;;21.08;16.73;;;28.20;34.50;;;;;;5022249;28;20037;-57
2022/03/26 11:58:13;;;;;;;18.67;14.90;;;27.80;37.40;;;;;;5008925;28;20030;-57
2022/03/26 12:01:04;;;;;;;15.77;14.20;;;27.30;36.20;;;;;;5013053;28;20026;-57
2022/03/26 12:03:42;;;;;;;15.20;13.80;;;27.30;36.60;;;;;;5013768;28;20021;-57
2022/03/26 12:08:54;;;;;;;18.00;14.43;;;27.80;36.20;;;;;;5020608;28;20037;-57
2022/03/26 12:11:33;;;;;;;14.73;13.32;;;27.30;36.40;;;;;;5016081;28;20103;-57
2022/03/26 12:13:59;;;;;;;20.70;15.07;;;27.00;36.10;;;;;;5017888;28;20022;-57
2022/03/26 12:16:51;;;;;;;16.58;14.27;;;26.90;36.90;;;;;;5016363;28;20030;-58
2022/03/26 12:19:35;;;;;;;16.52;14.18;;;26.80;36.00;;;;;;5016827;28;20049;-58
2022/03/26 12:22:20;;;;;;;20.83;14.45;;;26.60;37.60;;;;;;5022624;28;20105;-57
2022/03/26 12:24:46;;;;;;;19.20;12.75;;;26.70;36.20;;;;;;5023183;28;20029;-58
2022/03/26 12:27:13;;;;;;;23.63;13.80;;;26.80;35.60;;;;;;5019375;28;20584;-57
2022/03/26 12:29:39;;;;;;;16.33;12.85;;;27.00;35.20;;;;;;5018927;28;20022;-58
2022/03/26 12:32:05;;;;;;;20.30;12.68;;;27.00;35.50;;;;;;5018975;28;20030;-58
2022/03/26 12:34:31;;;;;;;16.15;12.70;;;26.70;36.10;;;;;;5019485;28;20072;-57
2022/03/26 12:37:03;;;;;;;18.10;12.32;;;26.30;37.80;;;;;;5017721;28;20498;-58
2022/03/26 12:39:29;;;;;;;14.80;10.77;;;26.10;37.90;;;;;;5020404;28;20424;-57
2022/03/26 12:41:56;;;;;;;22.67;11.27;;;25.70;36.70;;;;;;5019226;28;20039;-57